Walhalla, SC (29691)

11:31 PM EDT die 25o May, anno 2015 (GMT -0400)
West Walhalla (Near Library) KelBren | | Change Station
CLOSE
Current Station
Personal Weather Stations
Location: Walhalla, SC
Elevation: 1060 ft
Nearby Weather Stations

Elev 1060 ft 34.76 °N, 83.07 °W | Updated 15 minutes ago

Pluvia
Pluvia
69.6 °F
Feels Like 69.6 °F
N
0.0
Ventus Variabilis Ventus from Inter Austrum et Zephyrum

Hodie
High -- | Low -- °F
--% Chance of Precip.
Yesterday
High -- | Low -- °F
Precip. -- in
6:23 AM 8:35 PM
First Quarter, 54% visible
Pressio 30.22 in
Visibilitas 10.0 milia passuum
Clouds Plerumque Nubila 5000 ft
Plerumque Nubila 6500 ft
Aequaliter Nubila 11000 ft
Frigus in quo Ros apparet 62 °F
Umor 77%
Rainfall 0.04 in
Snow Depth Not available.
UV 0 out of 12
Pollen 5.90 out of 12
Air Quality Not available.
Flu Activity Local Activity
METAR KCEU 260254Z AUTO 12004KT 10SM BKN050 BKN065 OVC110 26/17 A3025 RMK AO2 SLP232 T02560167 53003

More Conditions Fewer Conditions

Pressio 30.22 in
Visibilitas 10.0 milia passuum
Clouds Plerumque Nubila 5000 ft
Plerumque Nubila 6500 ft
Aequaliter Nubila 11000 ft
Frigus in quo Ros apparet 62 °F
Umor 77%
Rainfall 0.04 in
Snow Depth Not available.
UV 0 out of 12
Pollen 5.90 out of 12
Air Quality Not available.
Flu Activity Local Activity
METAR KCEU 260254Z AUTO 12004KT 10SM BKN050 BKN065 OVC110 26/17 A3025 RMK AO2 SLP232 T02560167 53003

More Conditions Fewer Conditions

10-Day Weather Forecast

Almanac

Astronomy

May. 25, 2015 Rise Set
Actual Time
Civil Twilight
Nautical Twilight
Astronomical Twilight
Moon
Length Of Visible Light
Length of Day
Tomorrow will be .
, % of the Moon is Illuminated

Today's Extremes

State Highs State Lows

Community

WunderPhotos

Upload Photos

1,824,263 photos uploaded!

WunderBlogs® & News

Nearby

Air Quality

  Air Quality AQ Index Pollutant
Not available.

Snow Depth

Station Depth Elevation

Earthquake Activity

City Distance Mag. Time & Date
Minimum magnitude displayed is 2.5.

Coastal Water Temperatures

Locus Calor

Stations

Nearby Weather Stations

Station Location Temp Frigus Venti Frigus in quo Ros apparet Umor Ventus Precip. Elev Renovata Type